Time;durP1;ratioP1;P1;durP2;ratioP2;P2;SDS_P1;SDS_P2;PMS_P1;PMS_P2;Temp;Humidity;BMP_temperature;BMP_pressure;BME280_temperature;BME280_humidity;BME280_pressure;Samples;Min_cycle;Max_cycle;Signal;HPM_P1;HPM_P2
2022/03/24 00:00:02;;;;;;;0.60;0.10;;;11.60;99.90;;;;;;5057539;28;20474;-76
2022/03/24 00:02:30;;;;;;;0.60;0.10;;;11.60;99.90;;;;;;5055568;28;20473;-75
2022/03/24 00:04:58;;;;;;;0.60;0.10;;;11.60;99.90;;;;;;5053361;28;20493;-76
2022/03/24 00:07:26;;;;;;;0.60;0.10;;;11.50;99.90;;;;;;5052606;28;20462;-76
2022/03/24 00:09:53;;;;;;;0.60;0.10;;;11.30;99.90;;;;;;5052907;28;20474;-76
2022/03/24 00:12:23;;;;;;;0.60;0.10;;;11.30;99.90;;;;;;5052237;28;20474;-76
2022/03/24 00:14:51;;;;;;;0.60;0.10;;;;;;;;;;5052228;28;20451;-75
2022/03/24 00:17:19;;;;;;;1.43;1.33;;;11.20;99.90;;;;;;5057302;28;20438;-77
2022/03/24 00:19:46;;;;;;;0.60;0.30;;;11.10;99.90;;;;;;5066963;28;20456;-77
2022/03/24 00:22:14;;;;;;;0.60;0.10;;;11.00;99.90;;;;;;5054862;28;20537;-77
2022/03/24 00:24:42;;;;;;;0.60;0.10;;;10.90;99.90;;;;;;5051050;28;20435;-76
2022/03/24 00:27:10;;;;;;;0.60;0.10;;;10.90;99.90;;;;;;5042623;28;20478;-76
2022/03/24 00:29:40;;;;;;;0.70;0.53;;;10.80;99.90;;;;;;5052880;28;20463;-76
2022/03/24 00:32:08;;;;;;;0.60;0.10;;;10.80;99.90;;;;;;5052892;28;20482;-77
2022/03/24 00:34:36;;;;;;;0.60;0.10;;;10.60;99.90;;;;;;5054773;28;20446;-77
2022/03/24 00:37:05;;;;;;;1.37;1.27;;;10.50;99.90;;;;;;5053409;28;20524;-75
2022/03/24 00:39:33;;;;;;;0.60;0.10;;;10.30;99.90;;;;;;5053102;28;20466;-75
2022/03/24 00:42:01;;;;;;;0.60;0.10;;;10.30;99.90;;;;;;5053287;28;20445;-77
2022/03/24 00:44:29;;;;;;;0.60;0.10;;;10.20;99.90;;;;;;5052510;28;20553;-76
2022/03/24 00:46:58;;;;;;;0.60;0.27;;;10.10;99.90;;;;;;5052391;28;20450;-77
2022/03/24 00:49:26;;;;;;;0.60;0.10;;;10.10;99.90;;;;;;5051066;28;20471;-75
2022/03/24 00:51:55;;;;;;;0.60;0.10;;;10.00;99.90;;;;;;5051950;28;20989;-77
2022/03/24 00:54:23;;;;;;;1.60;1.50;;;10.10;99.90;;;;;;5048703;28;20997;-78
2022/03/24 00:56:51;;;;;;;0.60;0.20;;;10.00;99.90;;;;;;5057386;28;20461;-77
2022/03/24 00:59:18;;;;;;;0.70;0.50;;;9.90;99.90;;;;;;5058895;28;20462;-77
2022/03/24 01:01:46;;;;;;;0.60;0.10;;;9.80;99.90;;;;;;5052294;28;20442;-76
2022/03/24 01:04:15;;;;;;;0.60;0.10;;;9.80;99.90;;;;;;5055775;28;20453;-75
2022/03/24 01:06:44;;;;;;;0.60;0.10;;;9.80;99.90;;;;;;5058042;28;20446;-77
2022/03/24 01:09:13;;;;;;;0.60;0.10;;;;;;;;;;5051671;28;20453;-77
2022/03/24 01:11:41;;;;;;;0.60;0.10;;;9.80;99.90;;;;;;5053482;28;20482;-75
2022/03/24 01:14:09;;;;;;;0.60;0.10;;;9.80;99.90;;;;;;5051682;28;20456;-76
2022/03/24 01:16:37;;;;;;;0.60;0.10;;;9.80;99.90;;;;;;5051483;28;20450;-77
2022/03/24 01:19:06;;;;;;;0.60;0.10;;;9.80;99.90;;;;;;5051774;28;20473;-76
2022/03/24 01:21:36;;;;;;;0.60;0.10;;;9.80;99.90;;;;;;5051997;28;20525;-77
2022/03/24 01:24:04;;;;;;;0.60;0.10;;;9.90;99.90;;;;;;5052678;28;20488;-76
2022/03/24 01:26:32;;;;;;;0.60;0.10;;;10.00;99.90;;;;;;5052129;28;20449;-77
2022/03/24 01:29:00;;;;;;;0.60;0.10;;;10.00;99.90;;;;;;5052472;28;20453;-76
2022/03/24 01:31:29;;;;;;;0.60;0.10;;;;;;;;;;5068022;28;20546;-77
2022/03/24 01:33:56;;;;;;;0.60;0.10;;;9.90;99.90;;;;;;5059091;28;20441;-76
2022/03/24 01:36:24;;;;;;;0.60;0.10;;;9.90;99.90;;;;;;5071169;28;20513;-76
2022/03/24 01:38:53;;;;;;;0.60;0.10;;;9.80;99.90;;;;;;5070595;28;20452;-76
2022/03/24 01:41:22;;;;;;;0.60;0.30;;;9.70;99.90;;;;;;5069623;28;20877;-77
2022/03/24 01:43:50;;;;;;;0.60;0.10;;;9.60;99.90;;;;;;5072271;28;20429;-76
2022/03/24 01:46:22;;;;;;;0.60;0.10;;;9.50;99.90;;;;;;5069444;28;20975;-76
2022/03/24 01:48:50;;;;;;;32.20;29.90;;;9.50;99.90;;;;;;5064164;28;20446;-77
2022/03/24 01:51:18;;;;;;;0.60;0.20;;;9.40;99.90;;;;;;5072192;28;20465;-76
2022/03/24 01:53:46;;;;;;;0.60;0.10;;;9.40;99.90;;;;;;5071213;28;20469;-76
2022/03/24 01:56:16;;;;;;;0.60;0.10;;;9.40;99.90;;;;;;5066557;28;20444;-76
2022/03/24 01:58:44;;;;;;;0.60;0.10;;;;;;;;;;5056911;28;20433;-77
2022/03/24 02:01:29;;;;;;;3.53;3.40;;;9.40;99.90;;;;;;5058972;28;20469;-77
2022/03/24 02:03:58;;;;;;;0.60;0.10;;;9.40;99.90;;;;;;5058528;28;20442;-75
2022/03/24 02:06:26;;;;;;;0.77;0.60;;;9.40;99.90;;;;;;5060249;28;20441;-77
2022/03/24 02:08:55;;;;;;;0.60;0.10;;;9.50;99.90;;;;;;5060312;28;20440;-75
2022/03/24 02:11:24;;;;;;;0.60;0.10;;;9.40;99.90;;;;;;5059291;28;20469;-76
2022/03/24 02:13:52;;;;;;;0.60;0.10;;;9.40;99.90;;;;;;5062877;28;20940;-76
2022/03/24 02:16:20;;;;;;;10.97;6.07;;;9.30;99.90;;;;;;5065406;28;20449;-76
2022/03/24 02:18:49;;;;;;;0.60;0.10;;;9.30;99.90;;;;;;5057760;28;20449;-76
2022/03/24 02:21:17;;;;;;;0.60;0.10;;;9.20;99.90;;;;;;5054292;28;20500;-77
2022/03/24 02:23:49;;;;;;;0.60;0.10;;;9.20;99.90;;;;;;5054893;28;20483;-77
2022/03/24 02:26:18;;;;;;;0.60;0.10;;;9.20;99.90;;;;;;5059319;28;20449;-77
2022/03/24 02:28:46;;;;;;;0.60;0.10;;;9.10;99.90;;;;;;5062981;28;20910;-76
2022/03/24 02:31:14;;;;;;;0.60;0.20;;;9.10;99.90;;;;;;5071209;28;20552;-76
2022/03/24 02:33:42;;;;;;;0.60;0.10;;;9.10;99.90;;;;;;5057722;28;20484;-77
2022/03/24 02:36:10;;;;;;;0.60;0.30;;;9.10;99.90;;;;;;5057015;28;20445;-76
2022/03/24 02:38:38;;;;;;;0.60;0.10;;;9.00;99.90;;;;;;5057953;28;20524;-76
2022/03/24 02:41:07;;;;;;;0.60;0.10;;;9.00;99.90;;;;;;5057761;28;20464;-75
2022/03/24 02:43:35;;;;;;;0.60;0.10;;;8.90;99.90;;;;;;5057961;28;21001;-76
2022/03/24 02:46:03;;;;;;;0.60;0.10;;;8.90;99.90;;;;;;5067486;28;20449;-76
2022/03/24 02:48:31;;;;;;;0.60;0.10;;;8.80;99.90;;;;;;5069609;28;20476;-75
2022/03/24 02:50:59;;;;;;;0.60;0.10;;;8.80;99.90;;;;;;5056315;28;20494;-75
2022/03/24 02:53:27;;;;;;;0.60;0.10;;;8.90;99.90;;;;;;5055950;28;21037;-77
2022/03/24 02:55:55;;;;;;;4.33;4.13;;;8.90;99.90;;;;;;5052842;28;20473;-76
2022/03/24 02:58:24;;;;;;;0.60;0.10;;;8.90;99.90;;;;;;5046863;28;20456;-76
2022/03/24 03:00:53;;;;;;;0.60;0.10;;;8.80;99.90;;;;;;5055082;28;20468;-76
2022/03/24 03:03:22;;;;;;;0.60;0.10;;;8.80;99.90;;;;;;5054553;28;20495;-76
2022/03/24 03:05:50;;;;;;;0.60;0.10;;;8.70;99.90;;;;;;5053714;28;20434;-76
2022/03/24 03:08:18;;;;;;;0.60;0.10;;;8.80;99.90;;;;;;5053936;28;20929;-77
2022/03/24 03:10:45;;;;;;;0.60;0.10;;;8.80;99.90;;;;;;5053253;28;20473;-76
2022/03/24 03:13:13;;;;;;;0.60;0.10;;;8.80;99.90;;;;;;5052802;28;20828;-76
2022/03/24 03:15:43;;;;;;;0.60;0.10;;;8.80;99.90;;;;;;5053517;28;20986;-76
2022/03/24 03:18:12;;;;;;;0.60;0.10;;;8.80;99.90;;;;;;5053715;28;20471;-76
2022/03/24 03:20:40;;;;;;;0.60;0.20;;;8.80;99.90;;;;;;5053707;28;20470;-76
2022/03/24 03:23:07;;;;;;;0.60;0.10;;;8.80;99.90;;;;;;5053978;28;20451;-76
2022/03/24 03:25:35;;;;;;;2.43;2.33;;;8.80;99.90;;;;;;5059121;28;20472;-76
2022/03/24 03:28:04;;;;;;;0.60;0.10;;;8.80;99.90;;;;;;5056634;28;20442;-76
2022/03/24 03:30:32;;;;;;;0.60;0.10;;;8.80;99.90;;;;;;5063976;28;20497;-76
2022/03/24 03:33:01;;;;;;;0.60;0.10;;;8.80;99.90;;;;;;5066590;28;20473;-76
2022/03/24 03:35:29;;;;;;;0.60;0.10;;;8.80;99.90;;;;;;5064158;28;20457;-76
2022/03/24 03:37:58;;;;;;;0.60;0.10;;;8.70;99.90;;;;;;5055520;28;20804;-75
2022/03/24 03:40:26;;;;;;;0.60;0.10;;;8.70;99.90;;;;;;5059634;28;20469;-77
2022/03/24 03:42:53;;;;;;;0.60;0.10;;;8.80;99.90;;;;;;5059561;28;20465;-77
2022/03/24 03:45:22;;;;;;;0.60;0.17;;;8.90;99.90;;;;;;5053536;28;20547;-77
2022/03/24 03:47:49;;;;;;;0.60;0.10;;;8.90;99.90;;;;;;5052878;28;20911;-77
2022/03/24 03:50:19;;;;;;;0.60;0.10;;;8.80;99.90;;;;;;5053350;28;20473;-76
2022/03/24 03:52:47;;;;;;;0.60;0.10;;;8.80;99.90;;;;;;5053220;28;20706;-77
2022/03/24 03:55:15;;;;;;;0.60;0.10;;;8.90;99.90;;;;;;5053935;28;20966;-76
2022/03/24 03:57:43;;;;;;;0.60;0.10;;;8.90;99.90;;;;;;5053452;28;20464;-76
2022/03/24 04:02:58;;;;;;;0.60;0.10;;;8.80;99.90;;;;;;5053675;28;20458;-76
2022/03/24 04:05:27;;;;;;;0.60;0.10;;;8.80;99.90;;;;;;5054354;28;20495;-75
2022/03/24 04:07:55;;;;;;;0.60;0.20;;;8.70;99.90;;;;;;5053058;28;20465;-76
2022/03/24 04:10:27;;;;;;;0.60;0.10;;;;;;;;;;5053577;28;20485;-77
2022/03/24 04:13:02;;;;;;;0.60;0.10;;;;;;;;;;5055207;28;20499;-75
2022/03/24 04:15:33;;;;;;;0.60;0.10;;;;;;;;;;5054880;28;20457;-76
2022/03/24 04:18:02;;;;;;;0.60;0.10;;;8.60;99.90;;;;;;5053900;28;20507;-76
2022/03/24 04:20:31;;;;;;;0.60;0.10;;;8.60;99.90;;;;;;5059159;28;20469;-77
2022/03/24 04:23:02;;;;;;;0.60;0.10;;;8.60;99.90;;;;;;5054117;28;20862;-76
2022/03/24 04:25:30;;;;;;;0.60;0.10;;;8.50;99.90;;;;;;5047320;28;20451;-76
2022/03/24 04:28:04;;;;;;;0.60;0.10;;;8.50;99.90;;;;;;5033765;28;20443;-76
2022/03/24 04:30:32;;;;;;;0.60;0.10;;;8.60;99.90;;;;;;5049450;28;20481;-76
2022/03/24 04:33:00;;;;;;;0.60;0.10;;;8.50;99.90;;;;;;5052523;28;20484;-76
2022/03/24 04:35:28;;;;;;;0.60;0.10;;;8.50;99.90;;;;;;5053225;28;20450;-76
2022/03/24 04:37:58;;;;;;;0.60;0.10;;;8.50;99.90;;;;;;5053738;28;20445;-77
2022/03/24 04:40:26;;;;;;;0.60;0.10;;;8.60;99.90;;;;;;5060361;28;20483;-76
2022/03/24 04:42:55;;;;;;;0.60;0.10;;;8.60;99.90;;;;;;5067895;28;20443;-76
2022/03/24 04:45:24;;;;;;;0.60;0.10;;;8.60;99.90;;;;;;5053527;28;20465;-77
2022/03/24 04:47:52;;;;;;;0.60;0.10;;;8.50;99.90;;;;;;5055760;28;20510;-75
2022/03/24 04:50:20;;;;;;;0.60;0.10;;;8.50;99.90;;;;;;5069667;28;20454;-77
2022/03/24 04:52:49;;;;;;;0.60;0.10;;;8.50;99.90;;;;;;5058086;28;20464;-76
2022/03/24 04:55:18;;;;;;;0.60;0.10;;;8.50;99.90;;;;;;5058509;28;20508;-76
2022/03/24 04:57:46;;;;;;;0.60;0.10;;;8.40;99.90;;;;;;5059363;28;20461;-76
2022/03/24 05:00:17;;;;;;;0.60;0.10;;;8.40;99.90;;;;;;5062234;28;20477;-75
2022/03/24 05:02:46;;;;;;;0.60;0.17;;;8.40;99.90;;;;;;5068436;28;20551;-75
2022/03/24 05:05:15;;;;;;;0.60;0.10;;;8.40;99.90;;;;;;5066570;28;20456;-76
2022/03/24 05:07:43;;;;;;;0.60;0.20;;;8.40;99.90;;;;;;5067496;28;20520;-75
2022/03/24 05:10:12;;;;;;;0.60;0.10;;;;;;;;;;5073145;22;20489;-73
2022/03/24 05:12:41;;;;;;;0.60;0.10;;;8.40;99.90;;;;;;5024876;28;20457;-72
2022/03/24 05:15:11;;;;;;;0.60;0.10;;;8.40;99.90;;;;;;5032764;28;20577;-73
2022/03/24 05:17:39;;;;;;;0.60;0.10;;;8.40;99.90;;;;;;5033612;28;20515;-71
2022/03/24 05:20:08;;;;;;;0.60;0.20;;;8.30;99.90;;;;;;5031389;28;20449;-73
2022/03/24 05:22:37;;;;;;;0.60;0.10;;;;;;;;;;5033030;28;20946;-73
2022/03/24 05:25:07;;;;;;;0.60;0.10;;;8.30;99.90;;;;;;5033181;28;20447;-71
2022/03/24 05:27:35;;;;;;;0.60;0.10;;;8.10;99.90;;;;;;5032578;28;20770;-72
2022/03/24 05:30:05;;;;;;;0.60;0.10;;;8.00;99.90;;;;;;5033354;28;20694;-71
2022/03/24 05:32:34;;;;;;;0.60;0.10;;;7.80;99.90;;;;;;5029797;28;20448;-74
2022/03/24 05:35:02;;;;;;;0.60;0.10;;;7.80;99.90;;;;;;5033122;28;20513;-72
2022/03/24 05:37:30;;;;;;;0.60;0.10;;;7.80;99.90;;;;;;5018052;28;20436;-74
2022/03/24 05:39:58;;;;;;;0.60;0.10;;;7.70;99.90;;;;;;5022402;28;20450;-73
2022/03/24 05:42:27;;;;;;;0.87;0.83;;;;;;;;;;5036437;28;20563;-74
2022/03/24 05:44:55;;;;;;;0.60;0.10;;;7.70;99.90;;;;;;5041298;28;20510;-73
2022/03/24 05:47:24;;;;;;;0.80;0.70;;;7.80;99.90;;;;;;5036537;28;20442;-72
2022/03/24 05:49:52;;;;;;;0.60;0.10;;;7.70;99.90;;;;;;5021897;28;20558;-72
2022/03/24 05:52:20;;;;;;;0.60;0.10;;;7.80;99.90;;;;;;5019603;28;20499;-72
2022/03/24 05:54:48;;;;;;;0.60;0.10;;;7.70;99.90;;;;;;5023518;28;20931;-73
2022/03/24 05:57:16;;;;;;;0.60;0.10;;;7.80;99.90;;;;;;5035327;28;20452;-73
2022/03/24 05:59:44;;;;;;;0.60;0.10;;;7.70;99.90;;;;;;5032356;28;20457;-72
2022/03/24 06:02:13;;;;;;;0.60;0.10;;;7.70;99.90;;;;;;5034524;28;20475;-71
2022/03/24 06:04:43;;;;;;;0.60;0.20;;;7.80;99.90;;;;;;5036787;28;20492;-71
2022/03/24 06:07:11;;;;;;;0.60;0.10;;;7.80;99.90;;;;;;5035735;28;20454;-73
2022/03/24 06:09:39;;;;;;;0.60;0.10;;;7.80;99.90;;;;;;5035599;28;20481;-73
2022/03/24 06:12:10;;;;;;;0.60;0.10;;;7.80;99.90;;;;;;5031057;28;21029;-72
2022/03/24 06:14:40;;;;;;;0.60;0.20;;;7.80;99.90;;;;;;5035138;28;20478;-73
2022/03/24 06:17:09;;;;;;;0.60;0.10;;;7.90;99.90;;;;;;5035357;28;20773;-73
2022/03/24 06:19:39;;;;;;;0.60;0.10;;;7.90;99.90;;;;;;5029240;28;20438;-73
2022/03/24 06:22:08;;;;;;;0.60;0.10;;;7.90;99.90;;;;;;5015163;28;20455;-71
2022/03/24 06:24:36;;;;;;;0.60;0.10;;;7.90;99.90;;;;;;5029299;28;20450;-72
2022/03/24 06:27:05;;;;;;;0.60;0.10;;;7.90;99.90;;;;;;5031016;28;20562;-73
2022/03/24 06:29:33;;;;;;;0.60;0.10;;;;;;;;;;5036174;28;20833;-73
2022/03/24 06:32:03;;;;;;;0.60;0.10;;;7.90;99.90;;;;;;5035784;28;20534;-73
2022/03/24 06:34:31;;;;;;;0.60;0.10;;;8.00;99.90;;;;;;5035773;28;20480;-72
2022/03/24 06:37:00;;;;;;;0.60;0.10;;;8.00;99.90;;;;;;5030295;28;20462;-72
2022/03/24 06:39:29;;;;;;;0.60;0.10;;;8.00;99.90;;;;;;5016415;28;20453;-73
2022/03/24 06:41:58;;;;;;;0.60;0.30;;;;;;;;;;5017237;28;20502;-73
2022/03/24 06:44:26;;;;;;;0.60;0.10;;;8.20;99.90;;;;;;5021618;28;20446;-73
2022/03/24 06:46:54;;;;;;;0.60;0.10;;;8.20;99.90;;;;;;5028091;28;20477;-73
2022/03/24 06:49:23;;;;;;;0.60;0.10;;;;;;;;;;5032973;28;20830;-73
2022/03/24 06:51:51;;;;;;;0.60;0.10;;;8.10;99.90;;;;;;5029786;28;20485;-74
2022/03/24 06:54:19;;;;;;;1.70;1.03;;;8.20;99.90;;;;;;5031195;28;22130;-72
2022/03/24 06:56:51;;;;;;;0.60;0.10;;;8.20;99.90;;;;;;5027043;28;20535;-70
2022/03/24 06:59:19;;;;;;;0.60;0.10;;;8.20;99.90;;;;;;5024529;28;20457;-74
2022/03/24 07:01:48;;;;;;;0.60;0.20;;;8.30;99.90;;;;;;5030647;28;20490;-73
2022/03/24 07:04:16;;;;;;;0.60;0.10;;;8.30;99.90;;;;;;5032992;28;20442;-74
2022/03/24 07:06:44;;;;;;;0.60;0.10;;;8.30;99.90;;;;;;5033974;28;20458;-73
2022/03/24 07:09:12;;;;;;;0.60;0.10;;;;;;;;;;5035541;28;20555;-74
2022/03/24 07:11:40;;;;;;;0.60;0.10;;;8.30;99.90;;;;;;5035563;28;20998;-73
2022/03/24 07:14:10;;;;;;;0.60;0.10;;;;;;;;;;5034637;28;20458;-73
2022/03/24 07:16:38;;;;;;;0.60;0.10;;;8.40;99.90;;;;;;5035229;28;20454;-73
2022/03/24 07:19:08;;;;;;;0.60;0.30;;;8.50;99.90;;;;;;5035091;28;20925;-73
2022/03/24 07:21:36;;;;;;;0.60;0.10;;;8.60;99.90;;;;;;5037019;28;20471;-72
2022/03/24 07:24:05;;;;;;;0.60;0.10;;;;;;;;;;5036304;28;20447;-73
2022/03/24 07:26:32;;;;;;;0.60;0.10;;;8.70;99.90;;;;;;5033695;28;20454;-74
2022/03/24 07:29:00;;;;;;;0.60;0.10;;;8.70;99.90;;;;;;5035180;28;20481;-75
2022/03/24 07:31:30;;;;;;;0.60;0.10;;;8.80;99.90;;;;;;5035487;28;20554;-76
2022/03/24 07:34:01;;;;;;;0.70;0.53;;;8.80;99.90;;;;;;5034587;28;20791;-73
2022/03/24 07:36:29;;;;;;;0.60;0.10;;;8.80;99.90;;;;;;5032483;28;20898;-76
2022/03/24 07:38:58;;;;;;;0.60;0.10;;;8.80;99.90;;;;;;5035627;28;20450;-76
2022/03/24 07:41:26;;;;;;;0.60;0.10;;;8.90;99.90;;;;;;5035238;28;20542;-74
2022/03/24 07:43:54;;;;;;;0.60;0.10;;;8.90;99.90;;;;;;5034745;28;20570;-75
2022/03/24 07:46:22;;;;;;;0.60;0.10;;;8.90;99.90;;;;;;5033705;28;20860;-73
2022/03/24 07:48:52;;;;;;;0.60;0.10;;;8.90;99.90;;;;;;5014550;28;20452;-73
2022/03/24 07:51:20;;;;;;;0.60;0.10;;;9.00;99.90;;;;;;5017264;28;20485;-74
2022/03/24 07:53:55;;;;;;;0.60;0.10;;;9.00;99.90;;;;;;5034261;28;20458;-75
2022/03/24 07:56:25;;;;;;;0.60;0.10;;;9.20;99.90;;;;;;5032835;28;20499;-74
2022/03/24 07:58:56;;;;;;;0.60;0.10;;;9.20;99.90;;;;;;5039601;28;20466;-74
2022/03/24 08:01:29;;;;;;;0.60;0.10;;;9.30;99.90;;;;;;5043727;28;20462;-76
2022/03/24 08:03:59;;;;;;;0.60;0.10;;;9.30;99.90;;;;;;5041392;28;20793;-74
2022/03/24 08:06:29;;;;;;;0.60;0.10;;;9.30;99.90;;;;;;5042433;28;20443;-75
2022/03/24 08:08:57;;;;;;;0.60;0.10;;;9.40;99.90;;;;;;5037118;28;20549;-74
2022/03/24 08:11:26;;;;;;;0.60;0.10;;;9.50;99.90;;;;;;5036946;28;20471;-75
2022/03/24 08:13:55;;;;;;;0.97;0.77;;;9.60;99.90;;;;;;5036259;28;20452;-74
2022/03/24 08:16:24;;;;;;;0.60;0.10;;;9.70;99.90;;;;;;5036098;28;20506;-75
2022/03/24 08:18:53;;;;;;;0.60;0.10;;;9.70;99.90;;;;;;5035541;28;20513;-74
2022/03/24 08:21:23;;;;;;;0.60;0.10;;;9.80;99.90;;;;;;5035861;28;20467;-74
2022/03/24 08:23:51;;;;;;;0.60;0.10;;;9.90;99.90;;;;;;5035879;28;20459;-76
2022/03/24 08:26:19;;;;;;;0.60;0.10;;;;;;;;;;5034781;28;20501;-75
2022/03/24 08:28:56;;;;;;;0.60;0.10;;;10.00;99.90;;;;;;5035438;28;20439;-75
2022/03/24 08:31:25;;;;;;;0.60;0.10;;;10.20;99.90;;;;;;5034717;28;20467;-73
2022/03/24 08:33:53;;;;;;;0.60;0.10;;;10.20;99.90;;;;;;5034723;28;20447;-75
2022/03/24 08:36:23;;;;;;;0.60;0.10;;;10.20;99.90;;;;;;5035004;28;20490;-72
2022/03/24 08:38:51;;;;;;;0.60;0.10;;;10.40;99.90;;;;;;5034779;28;20534;-74
2022/03/24 08:41:19;;;;;;;0.60;0.10;;;;;;;;;;5035065;28;20562;-74
2022/03/24 08:43:47;;;;;;;0.60;0.10;;;10.70;99.90;;;;;;5035676;28;20550;-73
2022/03/24 08:46:15;;;;;;;0.60;0.10;;;10.80;99.90;;;;;;5036521;28;20457;-72
2022/03/24 08:48:43;;;;;;;0.60;0.10;;;10.80;99.90;;;;;;5036731;28;20451;-75
2022/03/24 08:51:15;;;;;;;0.60;0.10;;;10.90;99.90;;;;;;5037722;28;20459;-75
2022/03/24 08:53:44;;;;;;;0.60;0.10;;;11.00;99.90;;;;;;5041516;28;20483;-74
2022/03/24 08:56:13;;;;;;;0.60;0.10;;;11.20;99.90;;;;;;5044969;28;20513;-75
2022/03/24 08:58:41;;;;;;;0.60;0.10;;;11.20;99.90;;;;;;5040110;28;20448;-76
2022/03/24 09:01:10;;;;;;;0.60;0.10;;;11.30;99.90;;;;;;5029091;28;20977;-75
2022/03/24 09:03:39;;;;;;;0.60;0.10;;;11.40;99.90;;;;;;5042332;28;21012;-75
2022/03/24 09:06:09;;;;;;;0.60;0.10;;;11.40;99.90;;;;;;5042683;28;20834;-75
2022/03/24 09:08:39;;;;;;;0.60;0.10;;;;;;;;;;5045598;28;20855;-75
2022/03/24 09:11:08;;;;;;;0.60;0.10;;;11.70;99.90;;;;;;5035333;28;20546;-73
2022/03/24 09:13:37;;;;;;;0.60;0.10;;;11.70;99.90;;;;;;5034767;28;20513;-75
2022/03/24 09:16:06;;;;;;;0.60;0.20;;;11.80;99.90;;;;;;5037531;28;20578;-76
2022/03/24 09:18:34;;;;;;;0.60;0.10;;;11.90;99.90;;;;;;5046571;28;20447;-75
2022/03/24 09:21:02;;;;;;;0.70;0.37;;;12.10;99.90;;;;;;5041952;28;20494;-75
2022/03/24 09:23:31;;;;;;;2.20;2.00;;;12.20;99.90;;;;;;5043058;28;20435;-73
2022/03/24 09:25:59;;;;;;;1.13;1.10;;;12.20;99.90;;;;;;5042708;28;20515;-75
2022/03/24 09:28:54;;;;;;;0.60;0.10;;;;;;;;;;5041783;28;20451;-75
2022/03/24 09:31:23;;;;;;;1.17;1.07;;;;;;;;;;5043610;28;20673;-75
2022/03/24 09:33:51;;;;;;;2.27;2.07;;;12.60;99.90;;;;;;5042062;28;20443;-75
2022/03/24 09:36:37;;;;;;;0.60;0.10;;;12.70;99.90;;;;;;5044556;28;20569;-77
2022/03/24 09:39:07;;;;;;;0.60;0.10;;;12.80;99.90;;;;;;5041349;28;20452;-76
2022/03/24 09:41:38;;;;;;;0.60;0.10;;;13.00;99.90;;;;;;5039206;28;20467;-77
2022/03/24 09:44:08;;;;;;;0.60;0.10;;;13.00;99.90;;;;;;5033038;28;20454;-76
2022/03/24 09:46:36;;;;;;;0.60;0.10;;;13.10;99.90;;;;;;5033634;28;20448;-76
2022/03/24 09:49:04;;;;;;;0.60;0.10;;;13.30;99.90;;;;;;5032527;28;20476;-75
2022/03/24 09:51:32;;;;;;;0.60;0.10;;;13.40;99.90;;;;;;5035936;28;20472;-74
2022/03/24 09:54:00;;;;;;;0.60;0.10;;;13.50;99.90;;;;;;5036835;28;20813;-75
2022/03/24 09:56:29;;;;;;;0.93;0.70;;;13.50;99.90;;;;;;5032749;28;20495;-74
2022/03/24 09:58:58;;;;;;;0.60;0.10;;;;;;;;;;5034752;28;20470;-77
2022/03/24 10:01:27;;;;;;;0.60;0.10;;;13.70;99.90;;;;;;5032395;28;20515;-75
2022/03/24 10:04:06;;;;;;;0.60;0.10;;;13.80;99.90;;;;;;5035206;28;20585;-73
2022/03/24 10:06:36;;;;;;;0.60;0.10;;;13.80;99.90;;;;;;5030632;28;20435;-75
2022/03/24 10:09:04;;;;;;;0.70;0.50;;;14.00;99.90;;;;;;5036639;28;20447;-76
2022/03/24 10:11:35;;;;;;;0.60;0.10;;;14.20;99.90;;;;;;5032536;28;20492;-76
2022/03/24 10:14:04;;;;;;;0.60;0.10;;;14.30;99.90;;;;;;5033655;28;20444;-74
2022/03/24 10:16:43;;;;;;;0.67;0.40;;;14.40;99.90;;;;;;5033032;28;20495;-74
2022/03/24 10:19:14;;;;;;;2.00;1.90;;;14.60;99.90;;;;;;5042144;28;20451;-75
2022/03/24 10:21:46;;;;;;;0.60;0.10;;;14.60;99.90;;;;;;5045452;28;20471;-76
2022/03/24 10:24:17;;;;;;;0.60;0.10;;;14.70;99.90;;;;;;5039187;28;20474;-75
2022/03/24 10:26:47;;;;;;;0.60;0.10;;;14.70;99.90;;;;;;5045547;28;20775;-77
2022/03/24 10:29:17;;;;;;;0.60;0.10;;;14.80;99.90;;;;;;5053270;28;20829;-74
2022/03/24 10:31:52;;;;;;;0.60;0.10;;;14.90;99.90;;;;;;5037286;28;20463;-75
2022/03/24 10:34:29;;;;;;;0.60;0.10;;;15.10;99.90;;;;;;5049764;28;20460;-75
2022/03/24 10:36:57;;;;;;;0.60;0.10;;;15.10;99.90;;;;;;5042969;28;20543;-77
2022/03/24 10:39:25;;;;;;;2.87;2.77;;;15.40;99.90;;;;;;5035232;28;20470;-76
2022/03/24 10:41:53;;;;;;;0.60;0.10;;;15.40;99.90;;;;;;5036813;28;20476;-77
2022/03/24 10:44:21;;;;;;;0.60;0.10;;;15.40;99.90;;;;;;5035544;28;20457;-76
2022/03/24 10:46:51;;;;;;;0.60;0.10;;;15.60;99.90;;;;;;5033496;28;20933;-76
2022/03/24 10:49:23;;;;;;;0.60;0.10;;;15.70;99.90;;;;;;5032061;28;20793;-76
2022/03/24 10:51:56;;;;;;;1.80;1.70;;;15.80;99.90;;;;;;5032297;28;20509;-76
2022/03/24 10:54:39;;;;;;;2.83;2.57;;;15.90;99.90;;;;;;5037858;28;20460;-74
2022/03/24 10:57:13;;;;;;;0.70;0.40;;;16.10;99.90;;;;;;5040877;28;20855;-75
2022/03/24 10:59:45;;;;;;;2.70;1.80;;;16.10;99.90;;;;;;5033970;28;20549;-77
2022/03/24 11:02:16;;;;;;;0.60;0.10;;;16.30;99.90;;;;;;5030734;28;20906;-77
2022/03/24 11:04:45;;;;;;;0.60;0.20;;;16.30;99.90;;;;;;5035260;28;20458;-77
2022/03/24 11:07:13;;;;;;;1.73;1.03;;;16.40;99.90;;;;;;5036207;28;20446;-77
2022/03/24 11:09:43;;;;;;;7.10;6.53;;;16.50;99.90;;;;;;5038678;28;20436;-76
2022/03/24 11:12:26;;;;;;;1.77;1.53;;;16.70;99.90;;;;;;5036511;28;20484;-76
2022/03/24 11:14:56;;;;;;;0.60;0.10;;;16.70;99.90;;;;;;5042309;28;20439;-76
2022/03/24 11:17:27;;;;;;;0.60;0.10;;;16.70;99.90;;;;;;5022529;28;21079;-77
2022/03/24 11:20:06;;;;;;;0.60;0.10;;;16.90;99.90;;;;;;5041028;28;20437;-74
2022/03/24 11:22:40;;;;;;;0.60;0.20;;;17.00;99.90;;;;;;5041562;28;20477;-77
2022/03/24 11:25:09;;;;;;;4.10;3.80;;;17.00;99.90;;;;;;5035884;28;20817;-76
2022/03/24 11:27:37;;;;;;;3.53;3.33;;;17.00;99.90;;;;;;5040465;28;20456;-77
2022/03/24 11:30:07;;;;;;;22.37;21.33;;;17.30;99.90;;;;;;5039201;28;20866;-77
2022/03/24 11:32:38;;;;;;;16.53;11.87;;;17.30;99.90;;;;;;5038657;28;20452;-77
2022/03/24 11:35:08;;;;;;;0.60;0.10;;;17.30;99.90;;;;;;5035638;28;20949;-76
2022/03/24 11:37:36;;;;;;;0.70;0.40;;;17.40;99.90;;;;;;5029226;28;20503;-77
2022/03/24 11:40:09;;;;;;;0.70;0.67;;;17.60;99.90;;;;;;5018797;28;20805;-75
2022/03/24 11:42:44;;;;;;;1.03;0.93;;;17.60;99.90;;;;;;5029436;28;20440;-76
2022/03/24 11:45:19;;;;;;;0.60;0.10;;;17.70;99.90;;;;;;5038103;28;20516;-77
2022/03/24 11:47:55;;;;;;;0.60;0.10;;;17.80;99.90;;;;;;5042976;28;20816;-76
2022/03/24 11:50:46;;;;;;;1.17;0.67;;;17.90;99.90;;;;;;5042150;28;20817;-76
2022/03/24 11:53:20;;;;;;;1.93;1.73;;;18.00;99.90;;;;;;5035917;28;20441;-79
2022/03/24 11:56:11;;;;;;;0.70;0.40;;;18.00;99.90;;;;;;5050540;28;20442;-78
2022/03/24 11:58:46;;;;;;;0.70;0.37;;;18.10;99.90;;;;;;5057726;28;20508;-78
2022/03/24 12:01:29;;;;;;;0.60;0.10;;;18.10;99.90;;;;;;5047532;28;20520;-76
2022/03/24 12:04:05;;;;;;;0.60;0.20;;;18.30;99.90;;;;;;5040599;28;20457;-78
2022/03/24 12:06:53;;;;;;;3.60;2.83;;;18.30;99.90;;;;;;5032278;28;20447;-78
2022/03/24 12:09:24;;;;;;;1.37;1.27;;;18.30;99.90;;;;;;5041629;28;20478;-78
2022/03/24 12:11:53;;;;;;;0.60;0.10;;;18.30;99.90;;;;;;5031929;28;20485;-77
2022/03/24 12:14:36;;;;;;;0.60;0.20;;;18.40;99.90;;;;;;5030104;28;20449;-77
2022/03/24 12:17:07;;;;;;;0.60;0.10;;;18.40;99.90;;;;;;5038044;28;20527;-78
2022/03/24 12:19:47;;;;;;;1.37;1.27;;;18.50;99.90;;;;;;5028794;28;20489;-77
2022/03/24 12:22:37;;;;;;;0.60;0.20;;;18.60;99.90;;;;;;5033389;28;20564;-77
2022/03/24 12:25:29;;;;;;;0.60;0.10;;;18.70;99.90;;;;;;5029854;28;20886;-78
2022/03/24 12:28:21;;;;;;;8.17;7.53;;;18.80;99.90;;;;;;5039170;28;20462;-77
2022/03/24 12:31:11;;;;;;;0.60;0.30;;;18.30;99.90;;;;;;5034553;28;20484;-77
2022/03/24 12:33:46;;;;;;;16.33;4.37;;;18.80;99.90;;;;;;5033777;28;20461;-75
2022/03/24 12:36:41;;;;;;;0.70;0.47;;;18.80;99.90;;;;;;5039622;28;20863;-78
2022/03/24 12:39:09;;;;;;;1.10;0.77;;;18.80;99.90;;;;;;5036823;28;20517;-76
2022/03/24 12:41:37;;;;;;;1.93;1.50;;;18.90;99.90;;;;;;5034871;28;20486;-77
2022/03/24 12:44:09;;;;;;;0.60;0.10;;;18.90;99.90;;;;;;5031732;28;20446;-78
2022/03/24 12:46:44;;;;;;;1.10;0.67;;;18.90;99.90;;;;;;5036310;28;20484;-77
2022/03/24 12:49:34;;;;;;;0.60;0.10;;;19.00;99.90;;;;;;5034544;28;20460;-78
2022/03/24 12:52:07;;;;;;;3.47;3.13;;;19.10;99.90;;;;;;5031380;28;20484;-76
2022/03/24 12:54:44;;;;;;;0.60;0.10;;;19.10;99.90;;;;;;5030086;28;20454;-77
2022/03/24 12:57:25;;;;;;;3.27;1.63;;;19.10;99.90;;;;;;5036192;28;20482;-78
2022/03/24 12:59:54;;;;;;;0.60;0.30;;;19.20;99.90;;;;;;5034029;28;20446;-77
2022/03/24 13:02:23;;;;;;;0.70;0.43;;;19.20;99.90;;;;;;5044665;28;20456;-77
2022/03/24 13:04:52;;;;;;;0.60;0.20;;;19.30;99.90;;;;;;5033241;28;20446;-77
2022/03/24 13:07:24;;;;;;;0.60;0.20;;;19.40;99.90;;;;;;5043038;28;20433;-77
2022/03/24 13:10:07;;;;;;;0.70;0.37;;;19.50;99.90;;;;;;5041676;28;20455;-77
2022/03/24 13:12:37;;;;;;;1.27;0.50;;;19.50;99.90;;;;;;5047577;28;20557;-77
2022/03/24 13:15:07;;;;;;;0.60;0.10;;;19.50;99.90;;;;;;5042753;28;20801;-76